createdAt,value
2018-12-20T00:01:50.918Z,39.10
2018-12-20T00:04:27.952Z,40.83
2018-12-20T00:07:05.051Z,38.70
2018-12-20T00:09:37.495Z,40.77
2018-12-20T00:12:11.415Z,39.03
2018-12-20T00:14:44.236Z,37.07
2018-12-20T00:17:22.652Z,41.03
2018-12-20T00:19:55.241Z,36.57
2018-12-20T00:22:28.842Z,40.17
2018-12-20T00:25:05.918Z,38.73
2018-12-20T00:27:38.932Z,39.13
2018-12-20T00:30:11.959Z,41.00
2018-12-20T00:32:45.456Z,37.60
2018-12-20T00:35:22.953Z,40.23
2018-12-20T00:38:00.392Z,40.13
2018-12-20T00:40:36.908Z,42.63
2018-12-20T00:43:09.880Z,39.00
2018-12-20T00:45:42.601Z,38.53
2018-12-20T00:48:15.522Z,36.40
2018-12-20T00:50:48.459Z,37.03
2018-12-20T00:53:22.171Z,36.80
2018-12-20T01:00:51.808Z,36.07
2018-12-20T01:08:30.221Z,37.00
2018-12-20T01:11:03.635Z,36.47
2018-12-20T01:13:36.588Z,38.00
2018-12-20T01:16:08.855Z,40.70
2018-12-20T01:18:45.952Z,39.27
2018-12-20T01:21:20.263Z,40.67
2018-12-20T01:23:53.445Z,36.83
2018-12-20T01:26:30.352Z,37.23
2018-12-20T01:29:04.009Z,36.80
2018-12-20T01:31:40.348Z,35.80
2018-12-20T01:34:13.483Z,37.33
2018-12-20T01:36:46.765Z,36.73
2018-12-20T01:39:19.701Z,37.80
2018-12-20T01:41:54.841Z,40.30
2018-12-20T01:44:31.864Z,37.17
2018-12-20T01:47:02.933Z,39.33
2018-12-20T01:49:39.995Z,40.20
2018-12-20T01:52:17.306Z,38.93
2018-12-20T01:54:54.621Z,43.27
2018-12-20T01:57:25.586Z,38.37
2018-12-20T01:59:59.441Z,40.57
2018-12-20T02:02:30.660Z,37.30
2018-12-20T02:05:07.206Z,39.23
2018-12-20T02:20:16.908Z,40.23
2018-12-20T02:22:53.666Z,38.43
2018-12-20T02:25:27.696Z,43.90
2018-12-20T02:28:01.339Z,40.47
2018-12-20T02:30:31.866Z,40.63
2018-12-20T02:33:04.140Z,43.47
2018-12-20T02:35:40.780Z,41.73
2018-12-20T02:38:11.635Z,39.77
2018-12-20T02:40:44.731Z,42.20
2018-12-20T02:43:21.077Z,42.17
2018-12-20T02:45:53.583Z,40.63
2018-12-20T02:48:25.983Z,42.10
2018-12-20T02:51:03.308Z,42.23
2018-12-20T02:53:34.180Z,43.30
2018-12-20T02:56:12.547Z,42.07
2018-12-20T02:58:45.531Z,41.10
2018-12-20T03:01:19.428Z,41.30
2018-12-20T03:03:53.559Z,40.77
2018-12-20T03:06:26.891Z,44.27
2018-12-20T03:09:06.390Z,41.00
2018-12-20T03:11:44.355Z,43.90
2018-12-20T03:14:21.942Z,41.80
2018-12-20T03:16:56.142Z,46.20
2018-12-20T03:19:33.147Z,42.90
2018-12-20T03:22:07.391Z,42.57
2018-12-20T03:24:41.502Z,43.37
2018-12-20T03:27:14.518Z,43.47
2018-12-20T03:29:51.883Z,40.93
2018-12-20T03:32:25.725Z,42.67
2018-12-20T03:34:58.961Z,44.47
2018-12-20T03:37:32.633Z,40.13
2018-12-20T03:40:06.554Z,41.93
2018-12-20T03:42:40.026Z,45.20
2018-12-20T03:49:00.618Z,44.17
2018-12-20T03:51:37.164Z,45.77
2018-12-20T03:54:09.464Z,43.80
2018-12-20T03:56:42.766Z,43.97
2018-12-20T03:59:15.928Z,44.90
2018-12-20T04:01:48.811Z,43.70
2018-12-20T04:04:21.921Z,44.73
2018-12-20T04:06:54.446Z,42.93
2018-12-20T04:09:30.382Z,48.33
2018-12-20T04:12:03.713Z,43.17
2018-12-20T04:14:40.843Z,43.30
2018-12-20T04:17:11.891Z,46.97
2018-12-20T04:19:44.114Z,44.27
2018-12-20T04:24:55.825Z,47.13
2018-12-20T04:27:28.611Z,44.03
2018-12-20T04:30:01.744Z,47.03
2018-12-20T04:32:33.989Z,48.63
2018-12-20T04:35:07.624Z,46.33
2018-12-20T04:37:40.405Z,45.97
2018-12-20T04:40:13.615Z,44.10
2018-12-20T04:42:51.248Z,45.37
2018-12-20T04:45:22.165Z,42.57
2018-12-20T04:48:00.686Z,43.83
2018-12-20T04:50:37.507Z,45.07
2018-12-20T04:53:10.542Z,46.07
2018-12-20T04:55:44.485Z,43.53
2018-12-20T04:58:17.544Z,47.87
2018-12-20T05:00:56.399Z,50.50
2018-12-20T05:03:33.727Z,45.50
2018-12-20T05:06:10.427Z,46.03
2018-12-20T05:08:43.553Z,51.33
2018-12-20T05:11:20.828Z,43.63
2018-12-20T05:13:57.271Z,48.03
2018-12-20T05:16:34.594Z,46.33
2018-12-20T05:19:09.199Z,48.90
2018-12-20T05:21:45.450Z,44.07
2018-12-20T05:24:21.967Z,49.53
2018-12-20T05:27:01.848Z,47.17
2018-12-20T05:29:32.962Z,49.23
2018-12-20T05:32:11.015Z,49.80
2018-12-20T05:34:44.300Z,49.47
2018-12-20T05:37:16.949Z,47.57
2018-12-20T05:39:53.572Z,46.13
2018-12-20T05:42:29.426Z,45.30
2018-12-20T05:45:02.091Z,43.63
2018-12-20T05:47:39.958Z,48.13
2018-12-20T05:50:12.428Z,48.43
2018-12-20T05:52:45.374Z,46.40
2018-12-20T05:55:22.825Z,47.70
2018-12-20T05:58:06.429Z,41.50
2018-12-20T06:00:45.226Z,48.50
2018-12-20T06:03:21.271Z,47.70
2018-12-20T06:05:54.604Z,50.07
2018-12-20T06:08:27.821Z,47.23
2018-12-20T06:11:01.094Z,47.60
2018-12-20T06:13:32.915Z,49.60
2018-12-20T06:16:12.680Z,50.57
2018-12-20T06:18:43.567Z,48.27
2018-12-20T06:21:20.591Z,49.63
2018-12-20T06:23:53.511Z,50.80
2018-12-20T06:26:30.489Z,54.47
2018-12-20T06:29:08.381Z,52.27
2018-12-20T06:31:41.184Z,48.63
2018-12-20T06:34:18.290Z,50.57
2018-12-20T06:36:49.719Z,47.87
2018-12-20T06:39:26.346Z,53.13
2018-12-20T06:42:15.273Z,50.63
2018-12-20T06:44:52.124Z,51.03
2018-12-20T06:47:29.121Z,49.30
2018-12-20T06:50:06.820Z,52.50
2018-12-20T06:52:39.527Z,54.63
2018-12-20T06:55:10.386Z,52.27
2018-12-20T06:57:49.135Z,52.83
2018-12-20T07:00:21.777Z,52.07
2018-12-20T07:02:58.065Z,48.70
2018-12-20T07:05:34.896Z,47.80
2018-12-20T07:08:05.641Z,50.03
2018-12-20T07:10:42.219Z,50.00
2018-12-20T07:13:15.920Z,55.23
2018-12-20T07:15:52.701Z,49.83
2018-12-20T07:18:29.849Z,51.47
2018-12-20T07:21:02.224Z,53.67
2018-12-20T07:23:41.404Z,50.97
2018-12-20T07:26:14.545Z,52.50
2018-12-20T07:28:47.218Z,53.00
2018-12-20T07:31:23.833Z,56.27
2018-12-20T07:34:00.285Z,59.17
2018-12-20T07:36:38.402Z,56.30
2018-12-20T07:39:12.864Z,56.13
2018-12-20T07:41:50.287Z,52.40
2018-12-20T07:44:27.241Z,54.50
2018-12-20T07:46:59.841Z,55.10
2018-12-20T07:49:34.005Z,58.17
2018-12-20T07:52:12.318Z,54.47
2018-12-20T07:54:50.115Z,56.77
2018-12-20T07:57:24.871Z,60.60
2018-12-20T07:59:57.429Z,58.13
2018-12-20T08:02:28.651Z,62.93
2018-12-20T08:05:02.771Z,61.00
2018-12-20T08:07:34.026Z,61.57
2018-12-20T08:10:11.318Z,63.67
2018-12-20T08:12:48.306Z,68.00
2018-12-20T08:15:22.197Z,64.57
2018-12-20T08:17:55.315Z,62.13
2018-12-20T08:20:28.515Z,64.43
2018-12-20T08:23:01.004Z,67.67
2018-12-20T08:25:35.089Z,67.33
2018-12-20T08:28:08.021Z,71.43
2018-12-20T08:30:40.327Z,75.67
2018-12-20T08:33:13.766Z,73.20
2018-12-20T08:35:46.388Z,73.10
2018-12-20T08:38:20.209Z,79.60
2018-12-20T08:40:53.398Z,73.70
2018-12-20T08:43:26.665Z,82.30
2018-12-20T08:45:59.778Z,86.00
2018-12-20T08:48:33.746Z,81.70
2018-12-20T08:51:06.938Z,80.63
2018-12-20T08:53:40.231Z,81.10
2018-12-20T08:56:12.704Z,87.80
2018-12-20T08:58:50.402Z,79.73
2018-12-20T09:01:29.798Z,85.43
2018-12-20T09:04:01.099Z,85.93
2018-12-20T09:06:34.246Z,79.47
2018-12-20T09:09:10.528Z,89.40
2018-12-20T09:11:43.539Z,78.43
2018-12-20T09:14:17.651Z,85.83
2018-12-20T09:16:50.210Z,77.10
2018-12-20T09:19:23.054Z,75.60
2018-12-20T09:21:55.494Z,73.43
2018-12-20T09:24:28.713Z,65.50
2018-12-20T09:27:05.496Z,69.53
2018-12-20T09:29:38.010Z,75.73
2018-12-20T09:32:10.768Z,78.17
2018-12-20T09:34:46.983Z,78.57
2018-12-20T09:37:20.903Z,77.93
2018-12-20T09:39:53.767Z,77.33
2018-12-20T09:42:31.732Z,90.73
2018-12-20T09:45:42.167Z,84.60
2018-12-20T09:48:15.027Z,79.80
2018-12-20T09:50:47.174Z,77.43
2018-12-20T09:53:20.306Z,74.57
2018-12-20T09:55:57.495Z,68.77
2018-12-20T09:58:30.088Z,78.70
2018-12-20T10:01:06.611Z,86.80
2018-12-20T10:03:39.485Z,72.73
2018-12-20T10:06:11.663Z,73.20
2018-12-20T10:08:44.845Z,72.63
2018-12-20T10:11:18.057Z,72.50
2018-12-20T10:13:55.149Z,67.37
2018-12-20T10:16:27.575Z,77.53
2018-12-20T10:19:00.585Z,71.60
2018-12-20T10:21:33.475Z,73.23
2018-12-20T10:24:04.455Z,72.57
2018-12-20T10:26:34.884Z,66.23
2018-12-20T10:29:07.411Z,72.83
2018-12-20T10:31:37.534Z,71.40
2018-12-20T10:34:07.930Z,64.13
2018-12-20T10:36:40.813Z,66.63
2018-12-20T10:39:13.764Z,67.40
2018-12-20T10:41:50.933Z,70.17
2018-12-20T10:44:24.876Z,72.50
2018-12-20T10:47:11.466Z,71.57
2018-12-20T10:49:47.915Z,69.83
2018-12-20T10:52:21.013Z,70.23
2018-12-20T10:54:54.464Z,76.50
2018-12-20T10:57:27.071Z,72.47
2018-12-20T11:00:00.018Z,78.80
2018-12-20T11:02:38.797Z,85.50
2018-12-20T11:05:22.103Z,85.97
2018-12-20T11:07:59.426Z,87.03
2018-12-20T11:10:32.535Z,81.17
2018-12-20T11:13:11.064Z,72.70
2018-12-20T11:15:43.600Z,81.17
2018-12-20T11:18:19.997Z,80.53
2018-12-20T11:20:52.821Z,71.33
2018-12-20T11:23:25.502Z,80.20
2018-12-20T11:25:58.118Z,73.77
2018-12-20T11:28:30.491Z,75.60
2018-12-20T11:31:02.760Z,80.33
2018-12-20T11:33:35.809Z,71.57
2018-12-20T11:36:12.010Z,78.63
2018-12-20T11:38:45.887Z,67.73
2018-12-20T11:41:18.172Z,82.13
2018-12-20T11:43:51.336Z,73.20
2018-12-20T11:46:22.391Z,73.43
2018-12-20T11:48:53.102Z,78.07
2018-12-20T11:51:25.235Z,72.00
2018-12-20T11:53:58.261Z,75.13
2018-12-20T11:56:34.441Z,77.97
2018-12-20T11:59:09.141Z,81.40
2018-12-20T12:01:41.785Z,78.63
2018-12-20T12:04:14.580Z,79.30
2018-12-20T12:06:46.837Z,77.90
2018-12-20T12:09:19.999Z,80.33
2018-12-20T12:11:52.304Z,79.13
2018-12-20T12:14:24.433Z,74.67
2018-12-20T12:16:57.578Z,73.23
2018-12-20T12:19:30.682Z,79.30
2018-12-20T12:22:07.749Z,74.23
2018-12-20T12:24:45.105Z,80.70
2018-12-20T12:27:23.173Z,83.87
2018-12-20T12:30:05.292Z,72.40
2018-12-20T12:32:38.474Z,75.17
2018-12-20T12:35:10.613Z,80.67
2018-12-20T12:37:50.070Z,86.20
2018-12-20T12:40:27.453Z,80.23
2018-12-20T12:43:00.151Z,74.17
2018-12-20T12:45:34.791Z,77.67
2018-12-20T12:48:07.256Z,85.07
2018-12-20T12:50:40.321Z,77.93
2018-12-20T12:53:16.999Z,80.37
2018-12-20T12:55:50.169Z,78.83
2018-12-20T12:58:26.506Z,81.10
2018-12-20T13:01:04.659Z,87.20
2018-12-20T13:03:37.671Z,80.47
2018-12-20T13:06:14.246Z,82.60
2018-12-20T13:08:47.535Z,81.40
2018-12-20T13:11:24.773Z,85.63
2018-12-20T13:14:01.911Z,74.37
2018-12-20T13:16:35.250Z,86.93
2018-12-20T13:19:11.744Z,82.50
2018-12-20T13:21:48.212Z,86.10
2018-12-20T13:24:21.168Z,81.00
2018-12-20T13:26:55.049Z,78.83
2018-12-20T13:29:30.675Z,87.27
2018-12-20T13:32:05.894Z,82.73
2018-12-20T13:34:39.108Z,90.73
2018-12-20T13:37:15.805Z,80.50
2018-12-20T13:39:48.075Z,82.53
2018-12-20T13:42:21.547Z,87.47
2018-12-20T13:44:54.750Z,82.70
2018-12-20T13:47:30.048Z,80.07
2018-12-20T13:50:03.906Z,81.77
2018-12-20T13:52:41.082Z,80.67
2018-12-20T13:55:18.428Z,76.00
2018-12-20T13:57:54.861Z,71.93
2018-12-20T14:00:31.981Z,88.13
2018-12-20T14:03:06.572Z,84.70
2018-12-20T14:05:39.456Z,81.00
2018-12-20T14:08:12.749Z,78.17
2018-12-20T14:10:49.670Z,82.87
2018-12-20T14:13:28.114Z,76.30
2018-12-20T14:16:05.567Z,82.83
2018-12-20T14:18:38.900Z,82.70
2018-12-20T14:21:16.957Z,81.77
2018-12-20T14:23:48.063Z,77.80
2018-12-20T14:26:24.745Z,80.37
2018-12-20T14:28:56.634Z,72.10
2018-12-20T14:31:29.475Z,82.20
2018-12-20T14:34:00.011Z,73.37
2018-12-20T14:36:33.347Z,84.33
2018-12-20T14:39:07.938Z,76.20
2018-12-20T14:41:40.417Z,75.90
2018-12-20T14:44:12.905Z,76.63
2018-12-20T14:46:46.354Z,76.23
2018-12-20T14:49:22.949Z,79.40
2018-12-20T14:51:56.111Z,77.57
2018-12-20T14:54:29.118Z,76.77
2018-12-20T14:57:02.773Z,77.23
2018-12-20T14:59:33.718Z,79.57
2018-12-20T15:02:06.617Z,78.90
2018-12-20T15:04:39.816Z,84.07
2018-12-20T15:07:12.005Z,79.27
2018-12-20T15:09:44.746Z,72.03
2018-12-20T15:12:21.479Z,79.03
2018-12-20T15:14:59.600Z,74.10
2018-12-20T15:17:33.853Z,72.97
2018-12-20T15:20:09.489Z,78.67
2018-12-20T15:22:41.209Z,82.23
2018-12-20T15:25:19.476Z,74.90
2018-12-20T15:27:49.964Z,83.53
2018-12-20T15:30:23.977Z,85.10
2018-12-20T15:32:56.973Z,83.53
2018-12-20T15:35:36.016Z,81.17
2018-12-20T15:38:07.556Z,80.27
2018-12-20T15:40:40.613Z,77.90
2018-12-20T15:43:13.375Z,77.17
2018-12-20T15:45:46.571Z,73.73
2018-12-20T15:48:19.596Z,82.27
2018-12-20T15:50:52.249Z,75.63
2018-12-20T15:53:24.445Z,72.67
2018-12-20T15:56:02.650Z,84.13
2018-12-20T15:58:35.590Z,81.17
2018-12-20T16:01:13.627Z,85.77
2018-12-20T16:03:49.333Z,83.33
2018-12-20T16:06:22.890Z,79.80
2018-12-20T16:08:54.557Z,79.20
2018-12-20T16:11:28.028Z,84.30
2018-12-20T16:14:00.508Z,92.47
2018-12-20T16:16:33.428Z,86.57
2018-12-20T16:19:09.574Z,88.77
2018-12-20T16:21:41.640Z,89.60
2018-12-20T16:24:15.122Z,89.70
2018-12-20T16:26:47.810Z,90.97
2018-12-20T16:29:20.809Z,92.70
2018-12-20T16:31:53.079Z,81.57
2018-12-20T16:34:26.048Z,89.17
2018-12-20T16:36:56.171Z,92.63
2018-12-20T16:39:28.567Z,86.20
2018-12-20T16:42:01.562Z,85.27
2018-12-20T16:44:38.540Z,90.30
2018-12-20T16:47:09.942Z,88.20
2018-12-20T16:49:42.364Z,93.20
2018-12-20T16:52:15.381Z,98.10
2018-12-20T16:54:48.388Z,96.77
2018-12-20T16:57:20.559Z,96.33
2018-12-20T16:59:50.936Z,96.67
2018-12-20T17:02:28.047Z,105.47
2018-12-20T17:05:00.839Z,96.33
2018-12-20T17:07:33.250Z,98.37
2018-12-20T17:10:07.306Z,96.27
2018-12-20T17:12:39.656Z,104.17
2018-12-20T17:15:17.593Z,92.20
2018-12-20T17:17:50.122Z,101.83
2018-12-20T17:20:23.062Z,96.00
2018-12-20T17:22:55.382Z,96.43
2018-12-20T17:25:29.173Z,101.13
2018-12-20T17:27:59.396Z,102.73
2018-12-20T17:30:35.799Z,101.47
2018-12-20T17:33:12.113Z,100.27
2018-12-20T17:35:44.463Z,96.80
2018-12-20T17:38:14.757Z,94.87
2018-12-20T17:40:51.024Z,97.40
2018-12-20T17:43:24.054Z,83.93
2018-12-20T17:46:00.190Z,85.63
2018-12-20T17:48:36.793Z,92.53
2018-12-20T17:51:09.610Z,85.33
2018-12-20T17:53:48.068Z,103.73
2018-12-20T17:56:20.960Z,104.83
2018-12-20T17:58:53.343Z,89.80
2018-12-20T18:01:24.394Z,84.70
2018-12-20T18:04:00.610Z,103.70
2018-12-20T18:06:32.935Z,99.83
2018-12-20T18:09:08.716Z,103.97
2018-12-20T18:11:46.443Z,100.90
2018-12-20T18:14:17.464Z,102.67
2018-12-20T18:16:47.655Z,99.63
2018-12-20T18:19:20.509Z,103.83
2018-12-20T18:21:52.866Z,89.37
2018-12-20T18:24:29.023Z,85.83
2018-12-20T18:27:01.591Z,98.87
2018-12-20T18:29:34.728Z,87.30
2018-12-20T18:32:08.419Z,100.73
2018-12-20T18:34:41.672Z,94.63
2018-12-20T18:37:14.296Z,99.40
2018-12-20T18:39:45.256Z,92.33
2018-12-20T18:42:17.401Z,88.40
2018-12-20T18:44:49.769Z,90.60
2018-12-20T18:47:20.125Z,102.93
2018-12-20T18:49:52.268Z,94.33
2018-12-20T18:52:25.308Z,105.60
2018-12-20T18:54:58.495Z,91.20
2018-12-20T18:57:29.401Z,83.73
2018-12-20T19:00:02.622Z,98.80
2018-12-20T19:02:35.809Z,91.53
2018-12-20T19:05:09.189Z,97.80
2018-12-20T19:07:41.996Z,93.83
2018-12-20T19:10:15.043Z,102.13
2018-12-20T19:12:51.317Z,93.00
2018-12-20T19:15:28.556Z,89.87
2018-12-20T19:18:01.106Z,96.10
2018-12-20T19:20:34.710Z,93.00
2018-12-20T19:23:07.918Z,89.40
2018-12-20T19:25:45.576Z,95.93
2018-12-20T19:28:18.562Z,96.30
2018-12-20T19:30:50.935Z,91.17
2018-12-20T19:33:24.155Z,92.07
2018-12-20T19:35:54.413Z,94.33
2018-12-20T19:38:26.750Z,93.03
2018-12-20T19:40:59.527Z,82.73
2018-12-20T19:43:31.176Z,92.87
2018-12-20T19:46:04.139Z,102.03
2018-12-20T19:48:34.293Z,96.87
2018-12-20T19:51:11.387Z,101.50
2018-12-20T19:53:43.634Z,94.37
2018-12-20T19:56:17.037Z,89.23
2018-12-20T19:58:49.788Z,85.53
2018-12-20T20:01:21.871Z,89.37
2018-12-20T20:03:54.301Z,89.73
2018-12-20T20:06:27.209Z,91.33
2018-12-20T20:09:00.144Z,93.50
2018-12-20T20:11:40.781Z,91.33
2018-12-20T20:14:11.825Z,88.67
2018-12-20T20:16:50.919Z,94.00
2018-12-20T20:19:29.845Z,86.40
2018-12-20T20:22:05.347Z,97.30
2018-12-20T20:24:38.293Z,90.00
2018-12-20T20:27:12.067Z,85.40
2018-12-20T20:29:46.655Z,94.63
2018-12-20T20:32:41.149Z,95.07
2018-12-20T20:35:16.395Z,79.87
2018-12-20T20:37:51.912Z,75.17
2018-12-20T20:40:25.316Z,74.20
2018-12-20T20:42:59.463Z,83.50
2018-12-20T20:45:33.777Z,80.37
2018-12-20T20:48:12.774Z,83.60
2018-12-20T20:50:46.569Z,80.30
2018-12-20T20:53:20.737Z,84.13
2018-12-20T20:55:54.094Z,75.13
2018-12-20T20:58:30.823Z,77.77
2018-12-20T21:01:07.858Z,77.10
2018-12-20T21:03:40.682Z,89.97
2018-12-20T21:06:14.048Z,85.63
2018-12-20T21:08:54.022Z,90.40
2018-12-20T21:11:33.776Z,87.67
2018-12-20T21:14:11.255Z,87.07
2018-12-20T21:16:44.026Z,86.07
2018-12-20T21:19:17.132Z,80.13
2018-12-20T21:21:50.099Z,83.90
2018-12-20T21:24:27.517Z,93.00
2018-12-20T21:27:06.958Z,88.87
2018-12-20T21:29:40.709Z,87.53
2018-12-20T21:32:15.937Z,84.63
2018-12-20T21:34:51.331Z,89.77
2018-12-20T21:37:25.543Z,91.00
2018-12-20T21:39:59.155Z,85.83
2018-12-20T21:42:36.476Z,80.23
2018-12-20T21:45:13.683Z,78.30
2018-12-20T21:47:52.918Z,85.23
2018-12-20T21:50:29.992Z,83.53
2018-12-20T21:53:10.527Z,84.37
2018-12-20T21:55:44.251Z,87.40
2018-12-20T21:58:21.641Z,78.87
2018-12-20T22:00:55.264Z,95.43
2018-12-20T22:03:28.678Z,103.20
2018-12-20T22:06:05.242Z,100.40
2018-12-20T22:08:41.745Z,94.93
2018-12-20T22:11:18.774Z,91.27
2018-12-20T22:13:52.049Z,84.03
2018-12-20T22:16:28.982Z,85.67
2018-12-20T22:19:00.044Z,82.37
2018-12-20T22:21:33.108Z,81.00
2018-12-20T22:24:05.971Z,84.53
2018-12-20T22:26:37.320Z,84.37
2018-12-20T22:29:14.514Z,73.13
2018-12-20T22:31:47.434Z,75.10
2018-12-20T22:34:20.306Z,76.63
2018-12-20T22:36:53.468Z,80.93
2018-12-20T22:39:26.501Z,85.20
2018-12-20T22:42:00.707Z,78.83
2018-12-20T22:44:38.866Z,82.23
2018-12-20T22:47:12.745Z,78.97
2018-12-20T22:49:46.952Z,81.73
2018-12-20T22:52:19.859Z,73.67
2018-12-20T22:54:54.107Z,74.13
2018-12-20T22:57:27.481Z,82.40
2018-12-20T23:00:00.258Z,75.40
2018-12-20T23:02:33.310Z,76.77
2018-12-20T23:05:11.385Z,83.40
2018-12-20T23:07:45.066Z,83.27
2018-12-20T23:10:22.788Z,76.23
2018-12-20T23:12:55.721Z,83.10
2018-12-20T23:15:29.226Z,74.60
2018-12-20T23:18:04.004Z,108.60
2018-12-20T23:20:37.671Z,146.13
2018-12-20T23:23:14.613Z,238.70
2018-12-20T23:25:51.263Z,258.77
2018-12-20T23:28:28.328Z,135.10
2018-12-20T23:31:01.576Z,228.93
2018-12-20T23:33:35.342Z,130.63
2018-12-20T23:36:15.068Z,277.30
2018-12-20T23:38:48.988Z,195.73
2018-12-20T23:41:22.420Z,308.63
2018-12-20T23:43:53.755Z,285.97
2018-12-20T23:46:27.484Z,226.10
2018-12-20T23:49:01.752Z,278.80
2018-12-20T23:51:35.772Z,194.03
2018-12-20T23:54:09.223Z,201.70
2018-12-20T23:56:47.580Z,196.93
2018-12-20T23:59:20.916Z,165.23
